Time;durP1;ratioP1;P1;durP2;ratioP2;P2;SDS_P1;SDS_P2;PMS_P1;PMS_P2;Temp;Humidity;BMP_temperature;BMP_pressure;BME280_temperature;BME280_humidity;BME280_pressure;Samples;Min_cycle;Max_cycle;Signal;HPM_P1;HPM_P2
2022/11/03 00:02:23;;;;;;;23.90;8.23;;;;;;;;;;6304314;22;20459;-86
2022/11/03 00:04:48;;;;;;;36.87;17.57;;;;;;;;;;6310551;22;20377;-85
2022/11/03 00:07:20;;;;;;;22.93;12.17;;;6.50;99.90;;;;;;6315732;22;20377;-88
2022/11/03 00:09:46;;;;;;;21.55;8.50;;;;;;;;;;6313145;22;20385;-88
2022/11/03 00:12:12;;;;;;;14.02;6.60;;;;;;;;;;6312651;22;20151;-87
2022/11/03 00:14:38;;;;;;;12.00;4.15;;;;;;;;;;6308418;22;20560;-87
2022/11/03 00:17:04;;;;;;;26.40;4.93;;;;;;;;;;6312547;22;20163;-86
2022/11/03 00:19:30;;;;;;;13.47;4.40;;;;;;;;;;6304864;22;20377;-87
2022/11/03 00:21:58;;;;;;;12.17;4.37;;;;;;;;;;6305119;22;20416;-87
2022/11/03 00:24:24;;;;;;;10.15;3.33;;;;;;;;;;6305758;22;20420;-88
2022/11/03 00:26:50;;;;;;;14.23;4.20;;;;;;;;;;6308137;22;20570;-87
2022/11/03 00:29:16;;;;;;;14.25;4.80;;;;;;;;;;6305573;22;20373;-87
2022/11/03 00:31:43;;;;;;;14.03;4.53;;;8.00;99.90;;;;;;6304631;22;20162;-87
2022/11/03 00:34:09;;;;;;;21.35;8.60;;;;;;;;;;6304737;22;20827;-86
2022/11/03 00:36:44;;;;;;;21.25;7.28;;;7.30;99.90;;;;;;6306928;22;20177;-87
2022/11/03 00:39:10;;;;;;;21.15;8.38;;;;;;;;;;6306181;22;20163;-87
2022/11/03 00:41:36;;;;;;;15.73;7.05;;;;;;;;;;6306859;22;20181;-87
2022/11/03 00:44:02;;;;;;;14.20;5.90;;;;;;;;;;6308144;22;20128;-87
2022/11/03 00:46:29;;;;;;;9.33;5.70;;;;;;;;;;6301378;22;20300;-87
2022/11/03 00:48:55;;;;;;;12.45;6.65;;;;;;;;;;6303514;22;20370;-89
2022/11/03 00:51:25;;;;;;;15.25;5.28;;;7.40;99.90;;;;;;6304417;22;20147;-87
2022/11/03 00:53:59;;;;;;;15.95;6.70;;;7.80;99.90;;;;;;6302396;22;20151;-87
2022/11/03 00:56:25;;;;;;;13.20;4.82;;;;;;;;;;6304298;22;20171;-88
2022/11/03 00:58:52;;;;;;;12.57;5.28;;;8.00;99.90;;;;;;6301293;22;20206;-86
2022/11/03 01:01:19;;;;;;;7.95;4.35;;;8.00;99.90;;;;;;6302116;22;20187;-88
2022/11/03 01:06:49;;;;;;;10.18;6.82;;;7.70;99.90;;;;;;6304291;22;20208;-87
2022/11/03 01:09:16;;;;;;;23.15;7.13;;;7.50;99.90;;;;;;6309619;22;20177;-87
2022/11/03 01:11:48;;;;;;;12.23;6.70;;;7.20;99.90;;;;;;6305872;22;20158;-87
2022/11/03 01:14:14;;;;;;;13.95;6.07;;;;;;;;;;6307040;22;20488;-88
2022/11/03 01:16:41;;;;;;;17.67;6.70;;;7.20;99.90;;;;;;6304988;22;20251;-88
2022/11/03 01:19:07;;;;;;;11.93;5.95;;;;;;;;;;6306062;22;20167;-88
2022/11/03 01:21:33;;;;;;;13.48;6.95;;;7.50;99.90;;;;;;6305201;22;20193;-88
2022/11/03 01:24:03;;;;;;;13.90;5.80;;;7.50;99.90;;;;;;6304285;22;20536;-87
2022/11/03 01:26:29;;;;;;;28.58;7.20;;;7.60;99.90;;;;;;6305183;22;20669;-88
2022/11/03 01:28:55;;;;;;;9.13;2.70;;;;;;;;;;6302610;22;20139;-87
2022/11/03 01:31:23;;;;;;;8.90;3.83;;;8.10;99.90;;;;;;6306282;22;20438;-88
2022/11/03 01:33:51;;;;;;;9.90;3.10;;;8.30;99.90;;;;;;6305909;22;20930;-87
2022/11/03 01:36:17;;;;;;;4.70;3.47;;;8.30;99.90;;;;;;6308167;22;20226;-88
2022/11/03 01:38:43;;;;;;;13.93;4.40;;;;;;;;;;6304309;22;20597;-87
2022/11/03 01:41:19;;;;;;;10.80;3.60;;;8.20;99.90;;;;;;6302866;22;20215;-87
2022/11/03 01:43:49;;;;;;;8.85;4.82;;;8.20;99.90;;;;;;6300247;22;21246;-89
2022/11/03 01:46:20;;;;;;;7.28;3.35;;;8.10;99.90;;;;;;6302771;22;20195;-87
2022/11/03 01:49:12;;;;;;;7.03;3.00;;;8.10;99.90;;;;;;6300618;22;20151;-87
2022/11/03 01:51:39;;;;;;;10.73;5.60;;;7.90;99.90;;;;;;6297760;22;20261;-89
2022/11/03 01:54:10;;;;;;;14.85;5.80;;;7.80;99.90;;;;;;6305990;22;20510;-89
2022/11/03 01:56:41;;;;;;;12.80;5.60;;;7.60;99.90;;;;;;6309451;22;20617;-89
2022/11/03 01:59:07;;;;;;;12.75;5.82;;;;;;;;;;6306561;22;20534;-88
2022/11/03 02:01:35;;;;;;;11.77;2.97;;;7.90;99.90;;;;;;6308219;22;20219;-91
2022/11/03 02:04:08;;;;;;;7.95;3.88;;;8.00;99.90;;;;;;6318961;22;20155;-89
2022/11/03 02:06:35;;;;;;;8.85;3.10;;;;;;;;;;6302953;22;20202;-89
2022/11/03 02:09:06;;;;;;;11.43;3.30;;;8.20;99.90;;;;;;6303329;22;20159;-89
2022/11/03 02:14:18;;;;;;;12.20;3.92;;;;;;;;;;6301365;22;20139;-89
2022/11/03 02:16:56;;;;;;;7.55;3.40;;;8.60;99.90;;;;;;6302933;22;20171;-89
2022/11/03 02:19:43;;;;;;;4.90;2.83;;;8.30;99.90;;;;;;6301670;22;20617;-89
2022/11/03 02:22:40;;;;;;;13.77;3.38;;;8.30;99.90;;;;;;6302292;22;20235;-89
2022/11/03 02:25:35;;;;;;;8.88;3.15;;;8.40;99.90;;;;;;6301477;22;20162;-89
2022/11/03 02:28:02;;;;;;;7.35;3.10;;;8.30;99.90;;;;;;6300104;22;20140;-88
2022/11/03 02:30:35;;;;;;;11.02;3.40;;;8.40;99.90;;;;;;6302365;22;20146;-90
2022/11/03 02:33:23;;;;;;;6.95;3.25;;;8.20;99.90;;;;;;6306181;22;20196;-90
2022/11/03 02:36:21;;;;;;;7.32;3.40;;;8.70;99.90;;;;;;6304114;22;20283;-89
2022/11/03 02:38:57;;;;;;;5.32;2.20;;;8.20;99.90;;;;;;6304101;22;20143;-89
2022/11/03 02:41:24;;;;;;;7.85;3.92;;;8.20;99.90;;;;;;6300938;22;20174;-88
2022/11/03 02:43:52;;;;;;;4.68;2.80;;;8.20;99.90;;;;;;6301290;22;20204;-89
2022/11/03 02:46:18;;;;;;;11.55;3.30;;;8.20;99.90;;;;;;6302529;22;20190;-89
2022/11/03 02:48:44;;;;;;;6.15;3.05;;;;;;;;;;6303896;22;20162;-89
2022/11/03 02:51:11;;;;;;;5.40;3.08;;;;;;;;;;6307532;22;20154;-91
2022/11/03 02:53:46;;;;;;;7.35;3.15;;;8.40;99.90;;;;;;6302879;22;20203;-89
2022/11/03 02:56:21;;;;;;;9.73;3.05;;;8.40;99.90;;;;;;6305477;22;20300;-90
2022/11/03 02:59:00;;;;;;;7.90;3.88;;;8.50;99.90;;;;;;6303234;22;20147;-89
2022/11/03 03:01:58;;;;;;;8.48;3.28;;;8.60;99.90;;;;;;6307196;22;20196;-89
2022/11/03 03:04:32;;;;;;;15.13;3.97;;;8.60;99.90;;;;;;6304709;22;20183;-90
2022/11/03 03:07:06;;;;;;;10.82;3.40;;;8.60;99.90;;;;;;6303412;22;20209;-89
2022/11/03 03:09:42;;;;;;;6.13;3.40;;;8.60;99.90;;;;;;6306051;22;20212;-89
2022/11/03 03:12:11;;;;;;;4.30;2.97;;;8.60;99.90;;;;;;6304578;22;20154;-90
2022/11/03 03:14:40;;;;;;;7.45;3.33;;;8.50;99.90;;;;;;6302284;22;20151;-89
2022/11/03 03:17:34;;;;;;;18.98;3.63;;;8.60;99.90;;;;;;6304684;22;20174;-89
2022/11/03 03:20:13;;;;;;;11.20;3.47;;;8.40;99.90;;;;;;6302718;22;20153;-89
2022/11/03 03:22:46;;;;;;;9.25;3.00;;;8.20;99.90;;;;;;6302326;22;20534;-88
2022/11/03 03:25:19;;;;;;;15.05;4.90;;;8.50;99.90;;;;;;6299113;22;20143;-89
2022/11/03 03:27:52;;;;;;;9.98;3.58;;;8.40;99.90;;;;;;6301037;22;20178;-89
2022/11/03 03:30:18;;;;;;;8.43;4.78;;;8.30;99.90;;;;;;6300684;22;20151;-89
2022/11/03 03:32:47;;;;;;;16.85;6.53;;;8.50;99.90;;;;;;6301830;22;20152;-89
2022/11/03 03:35:17;;;;;;;12.88;5.00;;;8.20;99.90;;;;;;6304445;22;20143;-89
2022/11/03 03:37:47;;;;;;;8.80;4.68;;;8.30;99.90;;;;;;6303165;22;20265;-88
2022/11/03 03:40:18;;;;;;;17.45;5.55;;;8.20;99.90;;;;;;6302944;22;20254;-90
2022/11/03 03:42:46;;;;;;;10.07;4.00;;;8.50;99.90;;;;;;6299549;22;20171;-90
2022/11/03 03:45:13;;;;;;;13.10;4.63;;;;;;;;;;6299727;22;20667;-89
2022/11/03 03:47:39;;;;;;;15.30;5.03;;;;;;;;;;6300092;22;20197;-89
2022/11/03 03:50:05;;;;;;;13.03;5.40;;;;;;;;;;6300634;22;20139;-90
2022/11/03 03:52:33;;;;;;;15.02;4.65;;;8.00;99.90;;;;;;6300070;22;20370;-88
2022/11/03 03:54:59;;;;;;;10.00;4.68;;;;;;;;;;6300420;22;20140;-89
2022/11/03 03:57:29;;;;;;;11.33;4.70;;;7.80;99.90;;;;;;6299082;22;20174;-88
2022/11/03 03:59:55;;;;;;;15.75;5.80;;;;;;;;;;6301035;22;20393;-89
2022/11/03 04:02:21;;;;;;;10.10;3.83;;;;;;;;;;6299990;22;20532;-89
2022/11/03 04:04:47;;;;;;;12.35;4.80;;;;;;;;;;6297513;22;20148;-89
2022/11/03 04:09:58;;;;;;;6.93;4.50;;;;;;;;;;6302336;22;20463;-89
2022/11/03 04:23:26;;;;;;;15.38;4.88;;;7.60;99.90;;;;;;6304756;22;20147;-89
2022/11/03 04:25:54;;;;;;;18.83;4.10;;;7.70;99.90;;;;;;6304068;22;20173;-89
2022/11/03 04:28:20;;;;;;;9.82;3.85;;;;;;;;;;6301651;22;20182;-89
2022/11/03 04:30:46;;;;;;;19.55;5.28;;;;;;;;;;6304091;22;20649;-89
2022/11/03 04:33:17;;;;;;;6.77;4.40;;;7.90;99.90;;;;;;6305736;22;20191;-89
2022/11/03 04:35:43;;;;;;;11.82;5.68;;;8.00;99.90;;;;;;6305773;22;20350;-89
2022/11/03 04:38:21;;;;;;;10.55;5.38;;;7.90;99.90;;;;;;6304011;22;20155;-89
2022/11/03 04:40:55;;;;;;;11.02;5.53;;;7.70;99.90;;;;;;6304122;22;20151;-89
2022/11/03 04:43:35;;;;;;;9.57;6.00;;;7.80;99.90;;;;;;6303549;22;20175;-89
2022/11/03 04:46:01;;;;;;;10.43;4.60;;;;;;;;;;6302915;22;20171;-89
2022/11/03 04:48:28;;;;;;;26.58;5.50;;;8.00;99.90;;;;;;6304839;22;20148;-88
2022/11/03 04:50:57;;;;;;;11.25;5.75;;;8.00;99.90;;;;;;6302493;22;20144;-89
2022/11/03 04:53:24;;;;;;;13.52;5.10;;;;;;;;;;6299872;22;20208;-89
2022/11/03 04:55:52;;;;;;;16.83;5.43;;;8.00;99.90;;;;;;6299885;22;20347;-90
2022/11/03 04:58:18;;;;;;;14.10;6.00;;;;;;;;;;6298714;22;20254;-90
2022/11/03 05:00:44;;;;;;;15.77;5.70;;;;;;;;;;6306800;22;20155;-89
2022/11/03 05:03:36;;;;;;;14.83;5.50;;;7.90;99.90;;;;;;6305394;22;20437;-89
2022/11/03 05:06:20;;;;;;;5.90;4.00;;;7.90;99.90;;;;;;6302887;22;20460;-89
2022/11/03 05:08:51;;;;;;;15.63;4.82;;;8.00;99.90;;;;;;6306685;22;20644;-89
2022/11/03 05:11:33;;;;;;;14.88;6.18;;;8.00;99.90;;;;;;6304633;22;20221;-89
2022/11/03 05:14:01;;;;;;;15.07;6.90;;;7.90;99.90;;;;;;6303233;22;20196;-89
2022/11/03 05:16:28;;;;;;;11.65;5.28;;;;;;;;;;6304168;22;20173;-90
2022/11/03 05:18:54;;;;;;;10.00;5.80;;;;;;;;;;6304258;22;20478;-90
2022/11/03 05:21:22;;;;;;;17.63;6.17;;;8.00;99.90;;;;;;6303501;22;20190;-89
2022/11/03 05:23:53;;;;;;;14.57;5.40;;;8.00;99.90;;;;;;6303113;22;20373;-90
2022/11/03 05:26:24;;;;;;;13.45;4.38;;;7.90;99.90;;;;;;6303463;22;20201;-90
2022/11/03 05:28:58;;;;;;;10.93;5.05;;;7.90;99.90;;;;;;6304770;22;20469;-89
2022/11/03 05:31:34;;;;;;;21.70;6.88;;;7.90;99.90;;;;;;6306582;22;20123;-89
2022/11/03 05:34:01;;;;;;;12.18;5.05;;;7.90;99.90;;;;;;6303448;22;20159;-90
2022/11/03 05:36:30;;;;;;;17.55;4.28;;;7.90;99.90;;;;;;6305148;22;20174;-89
2022/11/03 05:39:04;;;;;;;8.18;3.63;;;7.90;99.90;;;;;;6307966;22;20212;-89
2022/11/03 05:41:31;;;;;;;7.82;6.18;;;7.90;99.90;;;;;;6302967;22;20174;-88
2022/11/03 05:44:00;;;;;;;9.90;5.65;;;7.90;99.90;;;;;;6311680;22;20151;-90
2022/11/03 05:46:29;;;;;;;12.23;5.47;;;7.80;99.90;;;;;;6320820;22;20183;-89
2022/11/03 05:48:55;;;;;;;11.23;4.70;;;;;;;;;;6308456;22;20164;-88
2022/11/03 05:51:23;;;;;;;6.53;4.35;;;7.90;99.90;;;;;;6305666;22;20155;-89
2022/11/03 05:54:01;;;;;;;15.27;5.22;;;7.90;99.90;;;;;;6302957;22;20155;-89
2022/11/03 05:56:27;;;;;;;14.75;5.13;;;;;;;;;;6296677;22;20176;-89
2022/11/03 05:58:55;;;;;;;10.40;4.67;;;7.90;99.90;;;;;;6297435;22;20145;-89
2022/11/03 06:01:35;;;;;;;14.18;5.85;;;7.90;99.90;;;;;;6304963;22;20421;-89
2022/11/03 06:04:17;;;;;;;11.15;5.20;;;7.90;99.90;;;;;;6302037;22;20151;-89
2022/11/03 06:06:50;;;;;;;10.40;4.90;;;7.90;99.90;;;;;;6296998;22;20187;-89
2022/11/03 06:09:20;;;;;;;7.38;4.15;;;7.90;99.90;;;;;;6302277;22;20187;-89
2022/11/03 06:11:46;;;;;;;13.15;4.70;;;;;;;;;;6302300;22;20693;-89
2022/11/03 06:14:26;;;;;;;7.38;4.07;;;7.80;99.90;;;;;;6304317;22;20143;-88
2022/11/03 06:17:01;;;;;;;8.93;3.88;;;7.70;99.90;;;;;;6298800;22;20178;-91
2022/11/03 06:19:43;;;;;;;7.03;3.80;;;7.70;99.90;;;;;;6301167;22;20157;-89
2022/11/03 06:22:17;;;;;;;11.85;4.57;;;7.70;99.90;;;;;;6298873;22;20310;-89
2022/11/03 06:24:44;;;;;;;12.32;4.85;;;;;;;;;;6303413;22;20131;-89
2022/11/03 06:27:15;;;;;;;12.80;3.95;;;7.80;99.90;;;;;;6299308;22;20169;-89
2022/11/03 06:29:54;;;;;;;11.13;5.70;;;7.80;99.90;;;;;;6300000;22;20960;-88
2022/11/03 06:32:20;;;;;;;12.00;7.22;;;;;;;;;;6296102;22;21006;-88
2022/11/03 06:34:48;;;;;;;11.10;6.93;;;7.60;99.90;;;;;;6300306;22;20151;-88
2022/11/03 06:37:22;;;;;;;32.67;6.78;;;7.50;99.90;;;;;;6303378;22;20435;-89
2022/11/03 06:39:48;;;;;;;12.43;6.07;;;7.80;99.90;;;;;;6303041;22;20754;-88
2022/11/03 06:42:15;;;;;;;8.13;5.20;;;7.80;99.90;;;;;;6298499;22;20198;-88
2022/11/03 06:44:44;;;;;;;10.60;4.45;;;8.00;99.90;;;;;;6298413;22;20155;-89
2022/11/03 06:47:25;;;;;;;13.60;4.07;;;8.20;99.90;;;;;;6299770;22;20297;-88
2022/11/03 06:49:56;;;;;;;21.02;4.53;;;8.50;99.90;;;;;;6304997;22;20147;-89
2022/11/03 06:52:25;;;;;;;12.00;3.88;;;8.90;99.90;;;;;;6303562;22;20273;-88
2022/11/03 06:55:15;;;;;;;6.40;4.15;;;9.40;99.90;;;;;;6301692;22;20155;-88
2022/11/03 06:57:43;;;;;;;14.20;4.80;;;9.80;99.90;;;;;;6303243;22;20662;-89
2022/11/03 07:00:21;;;;;;;11.73;5.80;;;9.80;99.90;;;;;;6300996;22;20197;-87
2022/11/03 07:02:58;;;;;;;13.30;5.90;;;9.60;99.90;;;;;;6299369;22;20599;-88
2022/11/03 07:05:31;;;;;;;16.25;6.25;;;9.70;99.90;;;;;;6294592;22;20154;-88
2022/11/03 07:08:18;;;;;;;12.02;7.13;;;9.90;99.90;;;;;;6302428;22;20144;-88
2022/11/03 07:10:44;;;;;;;7.93;5.20;;;;;;;;;;6299486;22;20573;-88
2022/11/03 07:13:14;;;;;;;12.38;5.93;;;10.70;99.90;;;;;;6302104;22;20580;-88
2022/11/03 07:15:42;;;;;;;8.60;5.35;;;11.20;99.90;;;;;;6299911;22;20246;-88
2022/11/03 07:18:20;;;;;;;12.23;5.18;;;11.90;99.90;;;;;;6301714;22;20616;-88
2022/11/03 07:20:46;;;;;;;8.00;4.15;;;13.00;99.90;;;;;;6298865;22;20937;-89
2022/11/03 07:23:18;;;;;;;12.35;5.60;;;13.40;99.90;;;;;;6303420;22;20178;-88
2022/11/03 07:25:47;;;;;;;9.35;5.15;;;13.50;99.90;;;;;;6303633;22;20148;-87
2022/11/03 07:28:13;;;;;;;10.63;5.50;;;;;;;;;;6306822;22;20221;-89
2022/11/03 07:30:39;;;;;;;9.73;5.50;;;;;;;;;;6312479;22;20366;-90
2022/11/03 07:33:17;;;;;;;8.10;3.97;;;15.30;99.90;;;;;;6298910;22;20753;-88
2022/11/03 07:35:44;;;;;;;8.20;3.23;;;15.10;99.90;;;;;;6301467;22;20366;-89
2022/11/03 07:38:14;;;;;;;7.70;3.63;;;15.60;99.90;;;;;;6301616;22;20464;-89
2022/11/03 07:40:41;;;;;;;7.17;3.17;;;15.00;99.90;;;;;;6299729;22;20377;-89
2022/11/03 07:43:16;;;;;;;10.17;4.03;;;14.30;99.90;;;;;;6302544;22;20409;-88
2022/11/03 07:45:42;;;;;;;6.60;3.93;;;;;;;;;;6300861;22;20365;-89
2022/11/03 07:48:21;;;;;;;11.00;3.00;;;13.90;99.90;;;;;;6298607;22;20374;-89
2022/11/03 07:50:50;;;;;;;6.80;3.07;;;13.90;99.90;;;;;;6301304;22;20388;-89
2022/11/03 07:53:24;;;;;;;11.53;3.47;;;14.00;99.90;;;;;;6296254;22;20498;-90
2022/11/03 07:55:53;;;;;;;8.97;3.40;;;13.70;99.90;;;;;;6285919;22;20399;-88
2022/11/03 07:58:24;;;;;;;5.40;2.83;;;13.70;99.90;;;;;;6289262;22;20424;-88
2022/11/03 08:00:56;;;;;;;10.30;4.00;;;13.00;99.90;;;;;;6289536;22;20462;-88
2022/11/03 08:03:43;;;;;;;11.18;2.28;;;12.80;99.90;;;;;;6292341;22;20458;-90
2022/11/03 08:06:09;;;;;;;9.47;3.37;;;;;;;;;;6300644;22;20171;-90
2022/11/03 08:08:36;;;;;;;11.52;3.88;;;11.70;99.90;;;;;;6300725;22;20972;-89
2022/11/03 08:11:02;;;;;;;2.42;1.92;;;;;;;;;;6300186;22;20664;-89
2022/11/03 08:13:30;;;;;;;7.63;3.80;;;11.30;99.90;;;;;;6301924;22;20681;-88
2022/11/03 08:15:56;;;;;;;8.07;2.45;;;;;;;;;;6306071;22;20182;-89
2022/11/03 08:18:22;;;;;;;5.82;2.55;;;;;;;;;;6298106;22;20202;-91
2022/11/03 08:20:48;;;;;;;4.53;2.17;;;;;;;;;;6300228;22;20161;-87
2022/11/03 08:23:14;;;;;;;5.70;2.05;;;11.20;99.90;;;;;;6302957;22;20178;-89
2022/11/03 08:25:40;;;;;;;3.87;2.20;;;;;;;;;;6292302;22;20465;-88
2022/11/03 08:28:06;;;;;;;3.53;1.80;;;;;;;;;;6301490;22;20148;-90
2022/11/03 08:30:33;;;;;;;4.53;2.40;;;;;;;;;;6302857;22;20399;-90
2022/11/03 08:32:59;;;;;;;9.02;2.83;;;;;;;;;;6303897;22;20434;-90
2022/11/03 08:35:26;;;;;;;4.53;3.38;;;11.70;99.90;;;;;;6304802;22;20155;-87
2022/11/03 08:37:52;;;;;;;7.25;2.38;;;;;;;;;;6296828;22;20143;-88
2022/11/03 08:40:18;;;;;;;4.77;2.73;;;;;;;;;;6300554;22;20150;-88
2022/11/03 08:42:44;;;;;;;2.30;1.50;;;;;;;;;;6303268;22;20417;-88
2022/11/03 08:45:11;;;;;;;8.70;2.60;;;11.80;99.90;;;;;;6301953;22;20846;-90
2022/11/03 08:47:38;;;;;;;5.13;2.25;;;11.70;99.90;;;;;;6305936;22;20415;-88
2022/11/03 08:50:04;;;;;;;8.95;2.40;;;11.70;99.90;;;;;;6303159;22;20186;-88
2022/11/03 08:52:30;;;;;;;12.95;2.83;;;;;;;;;;6298941;22;20171;-89
2022/11/03 08:54:56;;;;;;;6.45;2.20;;;;;;;;;;6300577;22;20151;-89
2022/11/03 08:57:22;;;;;;;4.47;1.90;;;;;;;;;;6295126;22;20185;-90
2022/11/03 08:59:48;;;;;;;4.80;2.20;;;;;;;;;;6289651;22;20527;-88
2022/11/03 09:02:14;;;;;;;8.88;2.92;;;;;;;;;;6293260;22;20420;-89
2022/11/03 09:04:40;;;;;;;6.73;2.60;;;;;;;;;;6290256;22;20146;-92
2022/11/03 09:07:06;;;;;;;8.33;2.13;;;;;;;;;;6292326;22;20415;-89
2022/11/03 09:09:33;;;;;;;2.63;1.53;;;12.00;99.90;;;;;;6295215;22;20374;-89
2022/11/03 09:11:58;;;;;;;12.45;3.67;;;;;;;;;;6292087;22;20406;-92
2022/11/03 09:14:24;;;;;;;7.03;3.00;;;;;;;;;;6293948;22;20158;-88
2022/11/03 09:16:50;;;;;;;5.17;2.00;;;;;;;;;;6291618;22;20432;-90
2022/11/03 09:19:16;;;;;;;4.13;2.23;;;;;;;;;;6295140;22;20374;-91
2022/11/03 09:21:42;;;;;;;5.05;2.03;;;;;;;;;;6297294;22;21008;-89
2022/11/03 09:24:09;;;;;;;5.75;2.45;;;;;;;;;;6297338;22;20123;-91
2022/11/03 09:26:35;;;;;;;9.45;2.63;;;;;;;;;;6297824;22;20171;-88
2022/11/03 09:29:05;;;;;;;12.63;3.17;;;12.60;99.90;;;;;;6303071;22;20191;-90
2022/11/03 09:31:30;;;;;;;10.02;2.55;;;;;;;;;;6291889;22;20378;-89
2022/11/03 09:33:56;;;;;;;6.77;2.90;;;;;;;;;;6292162;22;20188;-90
2022/11/03 09:36:22;;;;;;;7.93;2.60;;;;;;;;;;6296453;22;20409;-91
2022/11/03 09:38:49;;;;;;;11.63;2.28;;;;;;;;;;6301014;22;20543;-89
2022/11/03 09:41:18;;;;;;;8.32;3.10;;;;;;;;;;6303206;22;20500;-89
2022/11/03 09:43:45;;;;;;;9.00;3.97;;;12.20;99.90;;;;;;6302875;22;20151;-89
2022/11/03 09:46:11;;;;;;;5.15;2.63;;;12.30;99.90;;;;;;6300214;22;20195;-88
2022/11/03 09:48:37;;;;;;;6.70;2.65;;;12.10;99.90;;;;;;6299795;22;20144;-88
2022/11/03 09:51:03;;;;;;;3.13;2.57;;;;;;;;;;6298487;22;20128;-86
2022/11/03 09:53:30;;;;;;;4.05;3.00;;;;;;;;;;6296052;22;20495;-89
2022/11/03 09:55:56;;;;;;;29.23;4.05;;;;;;;;;;6297599;22;20195;-87
2022/11/03 09:58:21;;;;;;;10.80;4.07;;;12.40;99.90;;;;;;6311823;22;20174;-87
2022/11/03 10:00:47;;;;;;;4.53;2.33;;;12.30;99.90;;;;;;6310293;22;20482;-88
2022/11/03 10:03:15;;;;;;;5.97;3.17;;;12.40;99.90;;;;;;6300043;22;20198;-87
2022/11/03 10:05:43;;;;;;;8.50;3.75;;;12.50;99.90;;;;;;6301172;22;20152;-87
2022/11/03 10:08:29;;;;;;;8.32;4.68;;;12.50;99.90;;;;;;6302111;22;20143;-87
2022/11/03 10:10:55;;;;;;;9.57;3.40;;;;;;;;;;6298560;22;20589;-88
2022/11/03 10:13:30;;;;;;;9.07;4.03;;;12.50;99.90;;;;;;6299783;22;20953;-87
2022/11/03 10:15:58;;;;;;;4.65;2.90;;;12.40;99.90;;;;;;6298863;22;20181;-86
2022/11/03 10:18:26;;;;;;;5.55;3.40;;;12.30;99.90;;;;;;6298249;22;20169;-88
2022/11/03 10:20:52;;;;;;;14.52;4.70;;;;;;;;;;6301820;22;20143;-87
2022/11/03 10:23:17;;;;;;;7.37;3.27;;;12.20;99.90;;;;;;6302602;22;20561;-88
2022/11/03 10:25:44;;;;;;;11.90;4.27;;;12.30;99.90;;;;;;6300369;22;20393;-87
2022/11/03 10:28:16;;;;;;;6.22;3.70;;;;;;;;;;6299725;22;20473;-87
2022/11/03 10:30:55;;;;;;;14.15;4.88;;;12.40;99.90;;;;;;6299834;22;20135;-87
2022/11/03 10:33:29;;;;;;;8.77;4.55;;;12.50;99.90;;;;;;6301296;22;20586;-89
2022/11/03 10:35:57;;;;;;;7.00;4.10;;;12.60;99.90;;;;;;6302781;22;20174;-90
2022/11/03 10:38:30;;;;;;;6.13;4.75;;;12.90;99.90;;;;;;6301095;22;20374;-88
2022/11/03 10:41:20;;;;;;;12.30;4.83;;;13.10;99.90;;;;;;6302241;22;20143;-88
2022/11/03 10:44:11;;;;;;;8.83;4.90;;;12.70;99.90;;;;;;6295664;22;20370;-87
2022/11/03 10:47:01;;;;;;;18.83;5.15;;;12.70;99.90;;;;;;6294208;22;20408;-86
2022/11/03 10:49:32;;;;;;;11.68;5.20;;;11.90;99.90;;;;;;6294265;22;20146;-87
2022/11/03 10:52:23;;;;;;;10.20;5.28;;;12.60;99.90;;;;;;6294749;22;20139;-87
2022/11/03 10:54:50;;;;;;;6.75;3.75;;;12.90;99.90;;;;;;6296311;22;20144;-87
2022/11/03 10:57:16;;;;;;;7.68;4.43;;;;;;;;;;6296372;22;20258;-88
2022/11/03 10:59:44;;;;;;;8.65;5.00;;;12.60;99.90;;;;;;6297790;22;20166;-87
2022/11/03 11:02:19;;;;;;;9.18;4.60;;;12.70;99.90;;;;;;6300555;22;20166;-87
2022/11/03 11:04:50;;;;;;;6.47;4.30;;;12.80;99.90;;;;;;6299423;22;20611;-88
2022/11/03 11:07:24;;;;;;;10.27;3.90;;;12.90;99.90;;;;;;6298801;22;20424;-87
2022/11/03 11:09:51;;;;;;;10.18;5.45;;;;;;;;;;6294273;22;20350;-88
2022/11/03 11:12:21;;;;;;;8.05;3.42;;;12.80;99.90;;;;;;6292313;22;20204;-87
2022/11/03 11:15:01;;;;;;;15.47;3.97;;;12.80;99.90;;;;;;6295297;22;20146;-87
2022/11/03 11:17:36;;;;;;;7.38;4.18;;;12.80;99.90;;;;;;6290024;22;20470;-86
2022/11/03 11:20:29;;;;;;;8.20;3.58;;;12.90;99.90;;;;;;6301340;22;20164;-87
2022/11/03 11:23:16;;;;;;;13.20;4.00;;;12.80;99.90;;;;;;6304611;22;20199;-87
2022/11/03 11:26:08;;;;;;;8.20;3.75;;;12.80;99.90;;;;;;6296421;22;20238;-87
2022/11/03 11:28:34;;;;;;;10.65;3.38;;;;;;;;;;6278252;22;20182;-87
2022/11/03 11:31:00;;;;;;;9.13;4.53;;;;;;;;;;6294281;22;20132;-85
2022/11/03 11:33:27;;;;;;;7.60;4.40;;;13.00;99.90;;;;;;6294010;22;20420;-85
2022/11/03 11:35:53;;;;;;;14.43;4.80;;;;;;;;;;6295818;22;20404;-87
2022/11/03 11:38:47;;;;;;;6.53;3.70;;;13.00;99.90;;;;;;6291837;22;21108;-87
2022/11/03 11:41:13;;;;;;;9.13;3.70;;;13.40;99.90;;;;;;6293784;22;20856;-86
2022/11/03 11:43:39;;;;;;;11.40;4.37;;;;;;;;;;6293332;22;20391;-86
2022/11/03 11:46:21;;;;;;;7.77;4.83;;;13.20;99.90;;;;;;6294564;22;20163;-87
2022/11/03 11:48:55;;;;;;;9.23;4.40;;;13.50;99.90;;;;;;6320161;22;20385;-87
2022/11/03 11:51:21;;;;;;;12.13;4.40;;;13.50;99.90;;;;;;6319265;22;20369;-86
2022/11/03 11:53:48;;;;;;;8.50;4.00;;;13.60;99.90;;;;;;6295165;22;20375;-88
2022/11/03 11:56:16;;;;;;;13.00;4.30;;;13.70;99.90;;;;;;6293369;22;20167;-89
2022/11/03 11:58:47;;;;;;;7.93;3.40;;;13.80;99.90;;;;;;6294057;22;20401;-87
2022/11/03 12:01:47;;;;;;;9.40;4.20;;;13.80;99.90;;;;;;6293432;22;20404;-87
2022/11/03 12:04:21;;;;;;;5.67;3.40;;;13.90;99.90;;;;;;6275142;22;20390;-87
2022/11/03 12:06:47;;;;;;;3.77;3.20;;;13.90;99.90;;;;;;6294588;22;20406;-88
2022/11/03 12:09:13;;;;;;;5.77;3.60;;;;;;;;;;6296290;22;20682;-87
2022/11/03 12:11:47;;;;;;;8.60;3.70;;;13.80;99.90;;;;;;6292905;22;20146;-87
2022/11/03 12:14:39;;;;;;;12.77;3.67;;;13.80;99.90;;;;;;6299455;22;21076;-86
2022/11/03 12:17:17;;;;;;;5.70;3.60;;;13.80;99.90;;;;;;6290318;22;20407;-87
2022/11/03 12:19:47;;;;;;;3.80;2.73;;;13.80;99.90;;;;;;6296662;22;20349;-87
2022/11/03 12:22:22;;;;;;;5.43;3.20;;;13.80;99.90;;;;;;6295495;22;21200;-87
2022/11/03 12:24:55;;;;;;;7.03;3.33;;;13.80;99.90;;;;;;6303273;22;20436;-87
2022/11/03 12:27:23;;;;;;;5.13;3.30;;;13.80;99.90;;;;;;6301098;22;21194;-87
2022/11/03 12:29:55;;;;;;;6.33;3.30;;;14.10;99.90;;;;;;6304344;22;20354;-89
2022/11/03 12:32:22;;;;;;;9.20;3.97;;;13.80;99.90;;;;;;6299913;22;20374;-87
2022/11/03 12:34:48;;;;;;;5.03;2.60;;;;;;;;;;6301580;22;20378;-90
2022/11/03 12:37:14;;;;;;;5.13;3.23;;;;;;;;;;6302193;22;20424;-89
2022/11/03 12:39:40;;;;;;;6.27;2.23;;;;;;;;;;6296565;22;20357;-87
2022/11/03 12:42:07;;;;;;;8.93;3.10;;;13.80;99.90;;;;;;6301982;22;20404;-89
2022/11/03 12:44:33;;;;;;;6.37;3.30;;;;;;;;;;6302505;22;20357;-87
2022/11/03 12:47:02;;;;;;;10.63;3.20;;;13.80;99.90;;;;;;6301151;22;20388;-88
2022/11/03 12:49:29;;;;;;;3.40;2.87;;;13.90;99.90;;;;;;6300512;22;20376;-87
2022/11/03 12:52:04;;;;;;;8.20;2.97;;;13.60;99.90;;;;;;6298840;22;20374;-87
2022/11/03 12:54:38;;;;;;;7.03;3.00;;;13.80;99.90;;;;;;6302301;22;20380;-88
2022/11/03 12:57:04;;;;;;;4.70;3.43;;;;;;;;;;6301740;22;21021;-89
2022/11/03 12:59:30;;;;;;;8.43;2.60;;;;;;;;;;6297514;22;20374;-88
2022/11/03 13:01:56;;;;;;;10.37;3.47;;;;;;;;;;6303456;22;20409;-88
2022/11/03 13:04:22;;;;;;;14.90;4.33;;;;;;;;;;6300776;22;20389;-88
2022/11/03 13:06:48;;;;;;;10.07;3.13;;;;;;;;;;6297945;22;20394;-88
2022/11/03 13:09:14;;;;;;;3.30;2.87;;;;;;;;;;6296248;22;20368;-89
2022/11/03 13:14:25;;;;;;;5.20;2.87;;;;;;;;;;6305641;22;20379;-88
2022/11/03 13:16:52;;;;;;;9.83;2.87;;;14.00;99.90;;;;;;6298343;22;20490;-90
2022/11/03 13:19:18;;;;;;;5.03;2.60;;;;;;;;;;6298564;22;20386;-89
2022/11/03 13:21:44;;;;;;;27.90;3.87;;;;;;;;;;6298398;22;20481;-89
2022/11/03 13:24:10;;;;;;;4.53;3.13;;;;;;;;;;6297677;22;20388;-90
2022/11/03 13:26:36;;;;;;;5.90;3.43;;;;;;;;;;6297584;22;20394;-89
2022/11/03 13:29:02;;;;;;;5.37;3.33;;;;;;;;;;6297030;22;20350;-89
2022/11/03 13:31:28;;;;;;;6.57;3.47;;;;;;;;;;6298846;22;20411;-88
2022/11/03 13:33:54;;;;;;;5.70;3.23;;;;;;;;;;6296682;22;20373;-91
2022/11/03 13:36:20;;;;;;;4.13;2.33;;;;;;;;;;6298638;22;20382;-90
2022/11/03 13:38:46;;;;;;;5.57;2.67;;;;;;;;;;6296802;22;20896;-90
2022/11/03 13:41:13;;;;;;;10.60;4.40;;;13.80;99.90;;;;;;6299064;22;20354;-89
2022/11/03 13:43:39;;;;;;;7.13;2.60;;;;;;;;;;6298125;22;20422;-89
2022/11/03 13:46:05;;;;;;;4.40;3.23;;;13.90;99.90;;;;;;6297563;22;20390;-88
2022/11/03 13:48:31;;;;;;;4.60;3.43;;;13.70;99.90;;;;;;6295421;22;20381;-90
2022/11/03 13:50:58;;;;;;;7.93;2.60;;;;;;;;;;6296612;22;20545;-88
2022/11/03 13:53:25;;;;;;;4.90;3.60;;;13.60;99.90;;;;;;6297801;22;20412;-90
2022/11/03 13:55:51;;;;;;;4.03;3.23;;;;;;;;;;6298762;22;20527;-91
2022/11/03 13:58:17;;;;;;;6.83;2.97;;;;;;;;;;6298409;22;20473;-89
2022/11/03 14:00:43;;;;;;;5.00;2.73;;;;;;;;;;6302530;22;20401;-90
2022/11/03 14:03:09;;;;;;;5.33;2.57;;;;;;;;;;6301967;22;20410;-89
2022/11/03 14:05:35;;;;;;;3.60;2.07;;;;;;;;;;6299720;22;20374;-90